createdAt,value
2018-03-07T00:00:33.217Z,70.22
2018-03-07T00:01:38.467Z,70.03
2018-03-07T00:02:43.345Z,70.01
2018-03-07T00:03:48.875Z,70.07
2018-03-07T00:04:53.796Z,70.01
2018-03-07T00:05:59.046Z,70.08
2018-03-07T00:07:04.135Z,69.99
2018-03-07T00:08:09.243Z,70.17
2018-03-07T00:09:14.123Z,70.08
2018-03-07T00:10:19.070Z,69.96
2018-03-07T00:11:23.988Z,70.10
2018-03-07T00:12:29.292Z,70.14
2018-03-07T00:13:34.287Z,70.29
2018-03-07T00:14:39.566Z,70.51
2018-03-07T00:15:45.419Z,70.42
2018-03-07T00:16:50.348Z,70.53
2018-03-07T00:17:55.250Z,70.46
2018-03-07T00:19:00.405Z,70.32
2018-03-07T00:20:05.591Z,70.50
2018-03-07T00:21:10.820Z,70.25
2018-03-07T00:22:17.480Z,70.61
2018-03-07T00:23:22.669Z,70.79
2018-03-07T00:24:27.789Z,70.66
2018-03-07T00:25:32.670Z,70.22
2018-03-07T00:26:38.836Z,70.38
2018-03-07T00:27:43.832Z,70.10
2018-03-07T00:28:48.734Z,70.48
2018-03-07T00:29:53.667Z,70.59
2018-03-07T00:30:58.867Z,70.42
2018-03-07T00:32:03.839Z,70.34
2018-03-07T00:33:09.221Z,70.48
2018-03-07T00:34:14.231Z,70.30
2018-03-07T00:35:19.234Z,70.60
2018-03-07T00:36:24.569Z,70.38
2018-03-07T00:37:29.672Z,70.26
2018-03-07T00:38:35.597Z,70.12
2018-03-07T00:39:40.803Z,70.18
2018-03-07T00:40:45.855Z,70.60
2018-03-07T00:41:50.994Z,70.84
2018-03-07T00:42:56.770Z,70.56
2018-03-07T00:44:02.054Z,70.44
2018-03-07T00:45:07.860Z,70.31
2018-03-07T00:46:13.604Z,70.36
2018-03-07T00:47:18.706Z,70.50
2018-03-07T00:48:23.911Z,70.46
2018-03-07T00:49:28.861Z,70.44
2018-03-07T00:50:34.962Z,70.42
2018-03-07T00:51:39.912Z,70.32
2018-03-07T00:52:46.611Z,70.05
2018-03-07T00:53:51.836Z,69.59
2018-03-07T00:54:56.874Z,69.09
2018-03-07T00:56:02.062Z,69.25
2018-03-07T00:57:07.185Z,69.31
2018-03-07T00:58:12.243Z,69.74
2018-03-07T00:59:17.368Z,70.01
2018-03-07T01:00:22.534Z,70.36
2018-03-07T01:01:27.522Z,70.56
2018-03-07T01:02:32.956Z,70.71
2018-03-07T01:03:38.201Z,70.47
2018-03-07T01:04:43.321Z,70.28
2018-03-07T01:05:50.182Z,70.32
2018-03-07T01:06:55.331Z,70.38
2018-03-07T01:08:00.398Z,70.39
2018-03-07T01:09:05.818Z,70.49
2018-03-07T01:10:10.929Z,70.62
2018-03-07T01:11:16.127Z,70.78
2018-03-07T01:12:22.383Z,71.10
2018-03-07T01:13:27.771Z,71.21
2018-03-07T01:14:32.970Z,71.26
2018-03-07T01:15:38.930Z,71.44
2018-03-07T01:16:44.074Z,71.63
2018-03-07T01:17:50.284Z,71.72
2018-03-07T01:18:55.414Z,71.95
2018-03-07T01:20:00.372Z,72.11
2018-03-07T01:21:05.643Z,72.18
2018-03-07T01:22:11.054Z,72.23
2018-03-07T01:23:16.141Z,72.14
2018-03-07T01:24:21.553Z,71.92
2018-03-07T01:25:26.601Z,71.14
2018-03-07T01:26:31.707Z,70.35
2018-03-07T01:27:38.262Z,70.16
2018-03-07T01:28:43.388Z,70.26
2018-03-07T01:29:48.642Z,70.52
2018-03-07T01:30:54.172Z,70.65
2018-03-07T01:31:59.215Z,70.78
2018-03-07T01:33:04.862Z,70.86
2018-03-07T01:34:09.789Z,71.07
2018-03-07T01:35:15.344Z,71.31
2018-03-07T01:36:21.284Z,71.73
2018-03-07T01:37:26.578Z,71.74
2018-03-07T01:38:31.688Z,71.67
2018-03-07T01:39:36.945Z,71.73
2018-03-07T01:40:42.920Z,71.88
2018-03-07T01:41:50.302Z,71.98
2018-03-07T01:42:57.546Z,72.00
2018-03-07T01:44:02.625Z,72.10
2018-03-07T01:45:08.045Z,71.83
2018-03-07T01:46:14.245Z,71.70
2018-03-07T01:47:19.333Z,71.54
2018-03-07T01:48:24.553Z,71.61
2018-03-07T01:49:29.957Z,71.63
2018-03-07T01:50:34.927Z,71.65
2018-03-07T01:51:48.390Z,71.74
2018-03-07T01:52:53.307Z,71.74
2018-03-07T01:53:58.336Z,71.72
2018-03-07T01:55:03.714Z,71.92
2018-03-07T01:56:08.745Z,71.75
2018-03-07T01:57:13.633Z,71.85
2018-03-07T01:58:18.361Z,72.00
2018-03-07T01:59:23.716Z,71.42
2018-03-07T02:00:28.841Z,71.33
2018-03-07T02:01:34.311Z,71.04
2018-03-07T02:02:39.584Z,71.05
2018-03-07T02:03:44.325Z,71.86
2018-03-07T02:04:49.437Z,71.94
2018-03-07T02:05:54.533Z,71.87
2018-03-07T02:06:59.545Z,71.73
2018-03-07T02:08:05.055Z,71.58
2018-03-07T02:09:10.032Z,72.10
2018-03-07T02:10:14.533Z,71.84
2018-03-07T02:11:19.791Z,71.37
2018-03-07T02:12:24.688Z,70.56
2018-03-07T02:13:29.595Z,69.75
2018-03-07T02:14:34.914Z,69.15
2018-03-07T02:15:41.411Z,69.26
2018-03-07T02:16:47.591Z,69.44
2018-03-07T02:17:52.405Z,69.91
2018-03-07T02:18:57.154Z,69.96
2018-03-07T02:20:02.416Z,69.95
2018-03-07T02:21:07.350Z,70.16
2018-03-07T02:22:12.035Z,70.20
2018-03-07T02:23:17.226Z,70.20
2018-03-07T02:24:21.768Z,69.87
2018-03-07T02:25:26.699Z,70.22
2018-03-07T02:26:31.679Z,69.89
2018-03-07T02:27:36.660Z,69.90
2018-03-07T02:28:41.423Z,69.87
2018-03-07T02:29:48.417Z,70.18
2018-03-07T02:30:53.520Z,70.52
2018-03-07T02:31:58.143Z,70.31
2018-03-07T02:33:03.381Z,70.70
2018-03-07T02:34:08.017Z,71.13
2018-03-07T02:35:12.574Z,71.43
2018-03-07T02:36:25.628Z,72.03
2018-03-07T02:37:30.430Z,72.44
2018-03-07T02:38:35.250Z,72.65
2018-03-07T02:39:39.969Z,72.66
2018-03-07T02:40:46.111Z,72.51
2018-03-07T02:41:50.868Z,72.29
2018-03-07T02:42:55.487Z,72.05
2018-03-07T02:44:00.404Z,71.81
2018-03-07T02:45:07.671Z,71.57
2018-03-07T02:46:12.924Z,71.41
2018-03-07T02:47:17.435Z,71.24
2018-03-07T02:48:22.427Z,71.07
2018-03-07T02:49:27.087Z,70.89
2018-03-07T02:50:31.535Z,70.85
2018-03-07T02:51:36.580Z,70.86
2018-03-07T02:52:41.291Z,70.80
2018-03-07T02:53:46.204Z,70.86
2018-03-07T02:54:51.164Z,71.03
2018-03-07T02:55:55.987Z,71.25
2018-03-07T02:57:00.853Z,71.44
2018-03-07T02:58:05.915Z,71.70
2018-03-07T02:59:11.007Z,71.61
2018-03-07T03:00:17.431Z,71.47
2018-03-07T03:01:22.610Z,71.67
2018-03-07T03:02:27.481Z,71.69
2018-03-07T03:03:32.564Z,71.44
2018-03-07T03:04:37.613Z,71.23
2018-03-07T03:05:42.433Z,71.25
2018-03-07T03:06:48.118Z,71.25
2018-03-07T03:07:53.256Z,71.07
2018-03-07T03:08:58.395Z,70.97
2018-03-07T03:10:04.132Z,70.93
2018-03-07T03:11:08.835Z,70.99
2018-03-07T03:12:13.434Z,70.83
2018-03-07T03:13:17.951Z,70.70
2018-03-07T03:14:22.693Z,70.75
2018-03-07T03:15:27.367Z,71.05
2018-03-07T03:16:31.730Z,71.38
2018-03-07T03:17:36.806Z,71.52
2018-03-07T03:18:41.274Z,71.75
2018-03-07T03:19:45.525Z,71.94
2018-03-07T03:20:49.829Z,71.75
2018-03-07T03:21:54.401Z,71.57
2018-03-07T03:22:58.834Z,71.36
2018-03-07T03:24:03.744Z,71.40
2018-03-07T03:25:08.328Z,71.29
2018-03-07T03:26:12.964Z,71.11
2018-03-07T03:27:17.305Z,71.13
2018-03-07T03:28:21.962Z,71.29
2018-03-07T03:29:26.534Z,71.56
2018-03-07T03:30:31.997Z,71.33
2018-03-07T03:31:37.557Z,71.15
2018-03-07T03:32:43.726Z,71.25
2018-03-07T03:33:48.233Z,71.13
2018-03-07T03:34:53.873Z,71.19
2018-03-07T03:35:58.744Z,71.75
2018-03-07T03:37:03.289Z,71.51
2018-03-07T03:38:07.599Z,71.79
2018-03-07T03:39:12.015Z,71.71
2018-03-07T03:40:16.895Z,72.02
2018-03-07T03:41:21.432Z,71.37
2018-03-07T03:42:26.122Z,70.99
2018-03-07T03:43:30.591Z,71.13
2018-03-07T03:44:35.592Z,71.27
2018-03-07T03:45:41.184Z,71.89
2018-03-07T03:46:45.551Z,71.10
2018-03-07T03:47:50.253Z,71.13
2018-03-07T03:48:54.823Z,71.36
2018-03-07T03:49:59.286Z,71.12
2018-03-07T03:51:04.110Z,70.97
2018-03-07T03:52:08.562Z,71.02
2018-03-07T03:53:13.454Z,71.64
2018-03-07T03:54:18.071Z,72.00
2018-03-07T03:55:22.957Z,72.47
2018-03-07T03:56:27.404Z,72.76
2018-03-07T03:57:31.820Z,72.78
2018-03-07T03:58:36.142Z,72.53
2018-03-07T03:59:40.717Z,72.60
2018-03-07T04:00:46.330Z,73.19
2018-03-07T04:01:51.911Z,72.85
2018-03-07T04:02:56.459Z,73.48
2018-03-07T04:04:01.603Z,72.96
2018-03-07T04:05:06.296Z,73.37
2018-03-07T04:06:10.727Z,73.04
2018-03-07T04:07:15.272Z,72.92
2018-03-07T04:08:19.707Z,73.04
2018-03-07T04:09:24.274Z,72.70
2018-03-07T04:10:29.094Z,73.30
2018-03-07T04:11:33.553Z,73.12
2018-03-07T04:12:38.225Z,73.07
2018-03-07T04:13:42.768Z,73.18
2018-03-07T04:14:47.306Z,73.31
2018-03-07T04:15:52.353Z,73.52
2018-03-07T04:16:57.124Z,73.54
2018-03-07T04:18:01.742Z,73.47
2018-03-07T04:19:06.520Z,73.81
2018-03-07T04:20:11.918Z,73.90
2018-03-07T04:21:16.513Z,74.06
2018-03-07T04:22:20.908Z,74.19
2018-03-07T04:23:25.432Z,74.93
2018-03-07T04:24:30.010Z,74.64
2018-03-07T04:25:34.775Z,74.51
2018-03-07T04:26:39.312Z,74.63
2018-03-07T04:27:43.602Z,75.33
2018-03-07T04:28:48.489Z,75.61
2018-03-07T04:29:53.052Z,75.51
2018-03-07T04:30:57.655Z,76.00
2018-03-07T04:32:02.778Z,76.81
2018-03-07T04:33:07.543Z,76.55
2018-03-07T04:34:12.427Z,75.75
2018-03-07T04:35:17.341Z,75.81
2018-03-07T04:36:22.644Z,76.10
2018-03-07T04:37:27.130Z,76.00
2018-03-07T04:38:31.822Z,75.89
2018-03-07T04:39:36.366Z,75.55
2018-03-07T04:40:40.877Z,76.14
2018-03-07T04:41:45.280Z,76.07
2018-03-07T04:42:49.614Z,76.46
2018-03-07T04:43:54.842Z,77.33
2018-03-07T04:44:59.536Z,77.12
2018-03-07T04:46:04.573Z,77.20
2018-03-07T04:47:08.919Z,76.20
2018-03-07T04:48:13.242Z,75.99
2018-03-07T04:49:17.981Z,76.62
2018-03-07T04:50:22.521Z,75.86
2018-03-07T04:51:27.446Z,77.17
2018-03-07T04:52:32.110Z,76.80
2018-03-07T04:53:36.524Z,75.70
2018-03-07T04:54:41.000Z,74.37
2018-03-07T04:55:46.119Z,73.92
2018-03-07T04:56:52.040Z,74.02
2018-03-07T04:57:56.625Z,74.48
2018-03-07T04:59:00.957Z,75.67
2018-03-07T05:00:07.007Z,75.17
2018-03-07T05:01:12.048Z,75.43
2018-03-07T05:02:16.834Z,76.26
2018-03-07T05:03:21.622Z,76.30
2018-03-07T05:04:26.009Z,76.95
2018-03-07T05:05:30.461Z,76.17
2018-03-07T05:06:34.829Z,75.15
2018-03-07T05:07:39.459Z,74.59
2018-03-07T05:08:44.622Z,73.19
2018-03-07T05:09:49.588Z,72.96
2018-03-07T05:10:54.601Z,72.78
2018-03-07T05:11:59.541Z,72.42
2018-03-07T05:13:04.089Z,72.39
2018-03-07T05:14:08.886Z,72.61
2018-03-07T05:15:16.366Z,72.60
2018-03-07T05:16:21.562Z,72.76
2018-03-07T05:17:26.167Z,73.34
2018-03-07T05:18:30.563Z,73.50
2018-03-07T05:19:35.051Z,73.39
2018-03-07T05:20:39.575Z,73.49
2018-03-07T05:21:44.076Z,73.55
2018-03-07T05:22:49.459Z,73.37
2018-03-07T05:23:54.305Z,73.19
2018-03-07T05:24:58.684Z,72.90
2018-03-07T05:26:03.386Z,72.52
2018-03-07T05:27:08.432Z,72.30
2018-03-07T05:28:12.978Z,71.87
2018-03-07T05:29:17.926Z,71.67
2018-03-07T05:30:22.649Z,71.48
2018-03-07T05:31:27.641Z,71.18
2018-03-07T05:32:32.597Z,71.15
2018-03-07T05:33:37.766Z,71.02
2018-03-07T05:34:44.433Z,70.86
2018-03-07T05:35:49.868Z,70.66
2018-03-07T05:36:54.849Z,70.76
2018-03-07T05:38:00.533Z,70.99
2018-03-07T05:39:05.567Z,71.14
2018-03-07T05:40:10.243Z,71.32
2018-03-07T05:41:15.257Z,71.48
2018-03-07T05:42:20.078Z,71.89
2018-03-07T05:43:25.165Z,72.32
2018-03-07T05:44:30.531Z,72.66
2018-03-07T05:46:50.799Z,73.38
2018-03-07T05:47:55.508Z,73.75
2018-03-07T05:49:01.256Z,74.11
2018-03-07T05:50:06.383Z,74.38
2018-03-07T05:51:11.480Z,74.69
2018-03-07T05:52:16.307Z,74.84
2018-03-07T05:53:21.125Z,74.96
2018-03-07T05:54:25.964Z,75.14
2018-03-07T05:55:31.501Z,75.15
2018-03-07T05:56:36.253Z,75.36
2018-03-07T05:57:41.118Z,75.48
2018-03-07T05:58:46.210Z,75.26
2018-03-07T05:59:51.342Z,75.20
2018-03-07T06:00:57.037Z,75.27
2018-03-07T06:02:02.795Z,75.37
2018-03-07T06:03:07.797Z,75.10
2018-03-07T06:04:12.674Z,75.23
2018-03-07T06:05:17.581Z,75.19
2018-03-07T06:06:22.821Z,75.42
2018-03-07T06:07:28.181Z,75.49
2018-03-07T06:08:33.110Z,75.74
2018-03-07T06:09:38.136Z,75.58
2018-03-07T06:10:45.142Z,76.05
2018-03-07T06:11:50.342Z,76.05
2018-03-07T06:12:55.404Z,75.94
2018-03-07T06:14:01.377Z,76.05
2018-03-07T06:15:08.042Z,76.16
2018-03-07T06:16:13.098Z,76.24
2018-03-07T06:17:18.400Z,76.13
2018-03-07T06:18:23.800Z,76.18
2018-03-07T06:19:28.534Z,76.28
2018-03-07T06:20:33.568Z,76.39
2018-03-07T06:21:38.449Z,76.37
2018-03-07T06:22:43.704Z,76.38
2018-03-07T06:23:49.238Z,76.52
2018-03-07T06:24:54.779Z,76.31
2018-03-07T06:26:00.897Z,76.00
2018-03-07T06:27:06.953Z,76.10
2018-03-07T06:28:12.362Z,75.95
2018-03-07T06:29:17.418Z,75.92
2018-03-07T06:30:23.023Z,76.05
2018-03-07T06:31:28.086Z,76.32
2018-03-07T06:32:32.969Z,76.21
2018-03-07T06:33:37.978Z,76.31
2018-03-07T06:34:43.147Z,75.83
2018-03-07T06:35:49.167Z,75.83
2018-03-07T06:36:55.059Z,75.78
2018-03-07T06:38:00.567Z,75.70
2018-03-07T06:39:05.919Z,75.58
2018-03-07T06:40:11.130Z,75.54
2018-03-07T06:41:16.252Z,76.02
2018-03-07T06:42:21.394Z,76.23
2018-03-07T06:43:26.509Z,76.10
2018-03-07T06:44:32.070Z,75.56
2018-03-07T06:45:37.672Z,75.50
2018-03-07T06:46:42.805Z,75.22
2018-03-07T06:47:48.016Z,75.17
2018-03-07T06:48:53.340Z,74.97
2018-03-07T06:49:59.132Z,75.32
2018-03-07T06:51:05.825Z,75.35
2018-03-07T06:52:11.138Z,75.60
2018-03-07T06:53:16.183Z,75.51
2018-03-07T06:54:21.410Z,75.32
2018-03-07T06:55:26.459Z,75.25
2018-03-07T06:56:31.873Z,74.99
2018-03-07T06:57:37.073Z,74.54
2018-03-07T06:58:43.101Z,74.39
2018-03-07T06:59:49.416Z,74.43
2018-03-07T07:00:54.498Z,74.21
2018-03-07T07:01:59.715Z,74.34
2018-03-07T07:03:05.297Z,74.19
2018-03-07T07:04:10.341Z,74.18
2018-03-07T07:05:15.611Z,74.25
2018-03-07T07:06:20.560Z,74.35
2018-03-07T07:07:25.623Z,74.41
2018-03-07T07:08:30.653Z,74.46
2018-03-07T07:09:35.937Z,74.25
2018-03-07T07:10:40.689Z,73.96
2018-03-07T07:11:46.139Z,73.97
2018-03-07T07:12:51.581Z,73.57
2018-03-07T07:13:56.645Z,73.50
2018-03-07T07:15:03.208Z,73.62
2018-03-07T07:16:08.846Z,73.89
2018-03-07T07:17:13.865Z,73.53
2018-03-07T07:18:18.905Z,72.83
2018-03-07T07:19:24.012Z,72.56
2018-03-07T07:20:29.105Z,72.29
2018-03-07T07:21:34.199Z,72.13
2018-03-07T07:22:39.566Z,71.91
2018-03-07T07:23:44.758Z,71.85
2018-03-07T07:24:50.857Z,71.15
2018-03-07T07:25:56.085Z,70.76
2018-03-07T07:27:01.507Z,70.51
2018-03-07T07:28:07.069Z,70.34
2018-03-07T07:29:12.166Z,69.85
2018-03-07T07:30:17.839Z,69.63
2018-03-07T07:31:22.877Z,69.66
2018-03-07T07:32:27.819Z,69.99
2018-03-07T07:33:32.976Z,69.98
2018-03-07T07:34:38.266Z,69.92
2018-03-07T07:35:43.485Z,69.86
2018-03-07T07:36:48.786Z,69.40
2018-03-07T07:37:54.700Z,69.98
2018-03-07T07:38:59.792Z,69.58
2018-03-07T07:40:05.774Z,69.58
2018-03-07T07:41:11.321Z,68.91
2018-03-07T07:42:16.452Z,68.68
2018-03-07T07:43:21.767Z,68.43
2018-03-07T07:44:26.954Z,68.36
2018-03-07T07:45:31.957Z,68.10
2018-03-07T07:46:37.099Z,67.99
2018-03-07T07:47:43.386Z,67.70
2018-03-07T07:48:48.470Z,67.41
2018-03-07T07:49:53.823Z,67.09
2018-03-07T07:50:59.106Z,66.96
2018-03-07T07:52:04.402Z,67.30
2018-03-07T07:53:09.376Z,68.01
2018-03-07T07:54:14.590Z,67.78
2018-03-07T07:55:19.874Z,67.51
2018-03-07T07:56:25.113Z,67.31
2018-03-07T07:57:30.142Z,67.20
2018-03-07T07:58:35.879Z,67.02
2018-03-07T07:59:41.117Z,66.97
2018-03-07T08:00:46.268Z,66.48
2018-03-07T08:01:51.694Z,66.05
2018-03-07T08:02:56.902Z,66.08
2018-03-07T08:04:02.340Z,65.97
2018-03-07T08:05:09.880Z,65.90
2018-03-07T08:06:14.948Z,65.36
2018-03-07T08:07:20.015Z,64.41
2018-03-07T08:08:25.146Z,63.99
2018-03-07T08:09:30.159Z,63.68
2018-03-07T08:10:35.097Z,63.76
2018-03-07T08:11:42.484Z,63.33
2018-03-07T08:12:47.584Z,62.69
2018-03-07T08:13:52.896Z,62.14
2018-03-07T08:14:58.010Z,61.19
2018-03-07T08:16:03.423Z,60.96
2018-03-07T08:17:09.819Z,61.04
2018-03-07T08:18:15.387Z,60.81
2018-03-07T08:19:20.343Z,60.72
2018-03-07T08:20:25.511Z,60.30
2018-03-07T08:21:30.623Z,59.50
2018-03-07T08:22:35.809Z,58.49
2018-03-07T08:23:41.104Z,58.43
2018-03-07T08:24:46.441Z,57.90
2018-03-07T08:25:51.957Z,56.19
2018-03-07T08:26:57.163Z,56.30
2018-03-07T08:28:02.901Z,56.65
2018-03-07T08:29:08.850Z,57.05
2018-03-07T08:30:15.956Z,57.01
2018-03-07T08:31:21.131Z,57.10
2018-03-07T08:32:26.277Z,57.61
2018-03-07T08:33:31.396Z,57.57
2018-03-07T08:34:36.599Z,56.58
2018-03-07T08:35:41.775Z,56.26
2018-03-07T08:36:47.233Z,56.37
2018-03-07T08:37:53.255Z,56.44
2018-03-07T08:38:58.462Z,56.29
2018-03-07T08:40:04.746Z,56.11
2018-03-07T08:41:10.820Z,55.15
2018-03-07T08:42:15.683Z,54.76
2018-03-07T08:43:20.708Z,53.86
2018-03-07T08:44:25.886Z,53.89
2018-03-07T08:45:31.243Z,54.01
2018-03-07T08:46:36.145Z,54.37
2018-03-07T08:47:41.622Z,55.03
2018-03-07T08:48:46.999Z,55.36
2018-03-07T08:49:53.126Z,55.58
2018-03-07T08:50:58.403Z,56.13
2018-03-07T08:52:03.436Z,55.73
2018-03-07T08:53:08.479Z,56.03
2018-03-07T08:54:13.774Z,56.74
2018-03-07T08:55:18.650Z,57.17
2018-03-07T08:56:23.516Z,57.25
2018-03-07T08:57:28.460Z,57.27
2018-03-07T08:58:33.594Z,57.30
2018-03-07T08:59:38.725Z,56.72
2018-03-07T09:00:44.243Z,56.24
2018-03-07T09:01:49.616Z,55.91
2018-03-07T09:02:55.055Z,56.03
2018-03-07T09:04:00.043Z,55.95
2018-03-07T09:05:05.934Z,55.67
2018-03-07T09:06:10.937Z,54.82
2018-03-07T09:07:15.941Z,54.46
2018-03-07T09:08:20.892Z,54.30
2018-03-07T09:09:25.797Z,54.52
2018-03-07T09:10:30.851Z,54.49
2018-03-07T09:11:35.675Z,53.90
2018-03-07T09:12:41.112Z,53.65
2018-03-07T09:13:46.228Z,52.88
2018-03-07T09:14:52.163Z,52.59
2018-03-07T09:15:57.397Z,53.03
2018-03-07T09:17:02.325Z,53.36
2018-03-07T09:18:08.222Z,53.56
2018-03-07T09:19:13.061Z,53.56
2018-03-07T09:20:17.952Z,53.61
2018-03-07T09:21:22.856Z,53.14
2018-03-07T09:22:28.120Z,53.29
2018-03-07T09:23:33.415Z,53.33
2018-03-07T09:24:38.742Z,54.02
2018-03-07T09:25:43.734Z,53.75
2018-03-07T09:26:48.772Z,53.32
2018-03-07T09:27:54.833Z,52.66
2018-03-07T09:28:59.853Z,52.57
2018-03-07T09:30:08.060Z,52.63
2018-03-07T09:31:14.004Z,53.15
2018-03-07T09:32:18.887Z,53.13
2018-03-07T09:33:23.788Z,52.94
2018-03-07T09:34:28.741Z,53.40
2018-03-07T09:35:33.744Z,53.33
2018-03-07T09:36:38.810Z,52.64
2018-03-07T09:37:44.196Z,53.29
2018-03-07T09:38:48.921Z,53.47
2018-03-07T09:39:53.892Z,52.80
2018-03-07T09:40:58.761Z,52.69
2018-03-07T09:42:03.585Z,51.82
2018-03-07T09:43:09.558Z,52.36
2018-03-07T09:44:14.566Z,52.72
2018-03-07T09:45:19.518Z,52.49
2018-03-07T09:46:24.337Z,52.01
2018-03-07T09:47:29.125Z,51.83
2018-03-07T09:48:33.986Z,50.94
2018-03-07T09:49:39.232Z,50.80
2018-03-07T09:50:44.417Z,51.02
2018-03-07T09:51:49.274Z,51.61
2018-03-07T09:52:54.897Z,51.58
2018-03-07T09:53:59.830Z,52.14
2018-03-07T09:55:04.590Z,52.14
2018-03-07T09:56:11.152Z,52.58
2018-03-07T09:57:15.817Z,52.05
2018-03-07T09:58:20.735Z,51.27
2018-03-07T09:59:26.142Z,51.52
2018-03-07T10:00:31.244Z,50.90
2018-03-07T10:01:36.113Z,51.37
2018-03-07T10:02:41.237Z,51.78
2018-03-07T10:03:46.107Z,51.77
2018-03-07T10:04:51.863Z,51.83
2018-03-07T10:05:57.623Z,51.77
2018-03-07T10:07:02.479Z,51.64
2018-03-07T10:08:07.334Z,51.28
2018-03-07T10:09:12.182Z,50.77
2018-03-07T10:10:17.053Z,50.21
2018-03-07T10:11:22.073Z,50.12
2018-03-07T10:12:27.452Z,49.63
2018-03-07T10:13:32.488Z,49.60
2018-03-07T10:14:37.313Z,48.95
2018-03-07T10:15:42.444Z,49.33
2018-03-07T10:16:47.456Z,49.20
2018-03-07T10:17:52.364Z,48.90
2018-03-07T10:18:57.244Z,48.34
2018-03-07T10:20:03.318Z,46.84
2018-03-07T10:21:09.022Z,46.71
2018-03-07T10:22:13.908Z,47.08
2018-03-07T10:23:18.922Z,46.62
2018-03-07T10:24:23.736Z,46.68
2018-03-07T10:25:28.692Z,46.58
2018-03-07T10:26:34.213Z,46.59
2018-03-07T10:27:39.103Z,46.85
2018-03-07T10:28:45.998Z,46.34
2018-03-07T10:29:50.893Z,46.27
2018-03-07T10:30:55.882Z,45.16
2018-03-07T10:32:01.148Z,45.67
2018-03-07T10:33:09.961Z,46.10
2018-03-07T10:34:14.846Z,45.97
2018-03-07T10:35:20.496Z,45.51
2018-03-07T10:36:25.498Z,45.54
2018-03-07T10:37:30.387Z,44.75
2018-03-07T10:38:35.574Z,44.20
2018-03-07T10:39:40.506Z,44.50
2018-03-07T10:40:45.424Z,44.09
2018-03-07T10:41:50.284Z,42.98
2018-03-07T10:42:55.311Z,43.51
2018-03-07T10:44:00.107Z,43.66
2018-03-07T10:45:07.641Z,44.22
2018-03-07T10:46:14.204Z,45.85
2018-03-07T10:47:19.756Z,49.00
2018-03-07T10:48:24.622Z,51.31
2018-03-07T10:49:29.435Z,51.71
2018-03-07T10:50:34.669Z,52.93
2018-03-07T10:51:40.148Z,53.26
2018-03-07T10:52:45.444Z,53.67
2018-03-07T10:53:50.759Z,54.42
2018-03-07T10:54:55.713Z,54.26
2018-03-07T10:56:00.665Z,53.78
2018-03-07T10:57:06.629Z,52.06
2018-03-07T10:58:12.449Z,51.48
2018-03-07T10:59:17.300Z,51.39
2018-03-07T11:00:26.289Z,51.07
2018-03-07T11:01:31.156Z,51.01
2018-03-07T11:02:36.000Z,49.72
2018-03-07T11:03:41.149Z,49.94
2018-03-07T11:04:45.978Z,49.54
2018-03-07T11:05:50.843Z,49.66
2018-03-07T11:06:55.564Z,50.05
2018-03-07T11:08:00.623Z,49.07
2018-03-07T11:09:06.243Z,48.85
2018-03-07T11:10:11.401Z,48.39
2018-03-07T11:11:17.273Z,47.84
2018-03-07T11:12:22.012Z,47.32
2018-03-07T11:13:26.944Z,46.86
2018-03-07T11:14:31.839Z,45.59
2018-03-07T11:15:37.447Z,45.11
2018-03-07T11:16:42.317Z,45.63
2018-03-07T11:17:47.035Z,45.19
2018-03-07T11:18:51.953Z,43.82
2018-03-07T11:19:56.808Z,44.27
2018-03-07T11:21:01.618Z,43.97
2018-03-07T11:22:07.023Z,44.39
2018-03-07T11:23:12.676Z,44.61
2018-03-07T11:24:17.594Z,43.94
2018-03-07T11:25:22.419Z,43.43
2018-03-07T11:26:27.238Z,43.54
2018-03-07T11:27:32.096Z,42.40
2018-03-07T11:28:37.240Z,41.50
2018-03-07T11:29:42.080Z,39.94
2018-03-07T11:30:47.059Z,40.93
2018-03-07T11:31:51.791Z,40.52
2018-03-07T11:32:56.460Z,40.88
2018-03-07T11:34:01.726Z,40.58
2018-03-07T11:35:06.519Z,41.68
2018-03-07T11:36:11.689Z,41.53
2018-03-07T11:37:16.379Z,40.38
2018-03-07T11:38:21.179Z,39.76
2018-03-07T11:39:26.070Z,40.26
2018-03-07T11:40:30.797Z,40.51
2018-03-07T11:41:35.912Z,40.41
2018-03-07T11:42:40.516Z,40.39
2018-03-07T11:43:45.379Z,40.30
2018-03-07T11:44:50.248Z,40.11
2018-03-07T11:45:55.023Z,39.44
2018-03-07T11:46:59.862Z,38.36
2018-03-07T11:48:04.904Z,38.89
2018-03-07T11:49:09.641Z,37.98
2018-03-07T11:50:14.407Z,37.67
2018-03-07T11:51:19.196Z,39.29
2018-03-07T11:52:23.973Z,38.74
2018-03-07T11:53:28.798Z,38.24
2018-03-07T11:54:33.520Z,37.94
2018-03-07T11:55:38.534Z,38.30
2018-03-07T11:56:43.353Z,39.41
2018-03-07T11:57:48.290Z,39.42
2018-03-07T11:58:53.066Z,39.40
2018-03-07T11:59:57.846Z,38.88
2018-03-07T12:01:03.194Z,39.12
2018-03-07T12:02:08.155Z,38.57
2018-03-07T12:03:12.800Z,38.32
2018-03-07T12:04:17.646Z,37.22
2018-03-07T12:05:22.714Z,36.78
2018-03-07T12:06:27.919Z,37.31
2018-03-07T12:07:32.865Z,36.85
2018-03-07T12:08:37.799Z,37.16
2018-03-07T12:09:42.635Z,37.48
2018-03-07T12:10:47.473Z,37.81
2018-03-07T12:11:52.305Z,38.27
2018-03-07T12:12:57.522Z,38.44
2018-03-07T12:14:02.317Z,39.20
2018-03-07T12:15:07.648Z,39.67
2018-03-07T12:16:13.234Z,39.85
2018-03-07T12:17:21.430Z,40.04
2018-03-07T12:18:26.241Z,39.66
2018-03-07T12:19:31.418Z,39.22
2018-03-07T12:20:36.183Z,38.96
2018-03-07T12:21:40.961Z,38.65
2018-03-07T12:22:45.766Z,38.69
2018-03-07T12:23:50.567Z,38.56
2018-03-07T12:24:55.542Z,39.10
2018-03-07T12:26:00.566Z,39.31
2018-03-07T12:27:05.297Z,39.23
2018-03-07T12:28:10.164Z,38.27
2018-03-07T12:29:15.710Z,38.89
2018-03-07T12:30:21.729Z,39.11
2018-03-07T12:31:26.761Z,39.59
2018-03-07T12:32:31.514Z,40.02
2018-03-07T12:33:36.458Z,40.08
2018-03-07T12:34:41.175Z,40.16
2018-03-07T12:35:45.982Z,40.68
2018-03-07T12:36:50.840Z,40.98
2018-03-07T12:37:55.903Z,41.37
2018-03-07T12:39:00.661Z,41.30
2018-03-07T12:40:05.494Z,41.63
2018-03-07T12:41:10.417Z,42.00
2018-03-07T12:42:16.233Z,42.32
2018-03-07T12:43:20.937Z,42.62
2018-03-07T12:44:26.123Z,42.68
2018-03-07T12:45:31.707Z,43.25
2018-03-07T12:46:38.601Z,43.42
2018-03-07T12:47:43.408Z,43.86
2018-03-07T12:48:49.891Z,43.75
2018-03-07T12:49:54.607Z,43.62
2018-03-07T12:50:59.527Z,43.54
2018-03-07T12:52:04.673Z,43.81
2018-03-07T12:53:09.542Z,45.43
2018-03-07T12:54:14.256Z,45.77
2018-03-07T12:55:19.074Z,43.35
2018-03-07T12:56:24.175Z,44.09
2018-03-07T12:57:29.026Z,43.13
2018-03-07T12:58:33.944Z,42.34
2018-03-07T12:59:38.664Z,41.73
2018-03-07T13:00:43.677Z,42.29
2018-03-07T13:01:48.478Z,42.61
2018-03-07T13:02:53.906Z,42.73
2018-03-07T13:03:58.790Z,43.09
2018-03-07T13:05:03.597Z,42.88
2018-03-07T13:06:08.504Z,43.89
2018-03-07T13:07:15.514Z,44.14
2018-03-07T13:08:21.181Z,44.10
2018-03-07T13:09:25.991Z,43.83
2018-03-07T13:10:30.693Z,44.14
2018-03-07T13:11:35.506Z,43.59
2018-03-07T13:12:40.277Z,46.38
2018-03-07T13:13:45.021Z,45.79
2018-03-07T13:14:50.188Z,45.30
2018-03-07T13:15:55.584Z,44.61
2018-03-07T13:17:00.624Z,44.41
2018-03-07T13:18:05.427Z,44.67
2018-03-07T13:19:10.822Z,44.29
2018-03-07T13:20:15.985Z,44.27
2018-03-07T13:21:20.785Z,44.56
2018-03-07T13:22:25.526Z,43.59
2018-03-07T13:23:30.375Z,43.43
2018-03-07T13:24:35.220Z,44.05
2018-03-07T13:25:40.364Z,43.90
2018-03-07T13:26:45.237Z,43.77
2018-03-07T13:27:49.963Z,43.88
2018-03-07T13:28:54.827Z,44.30
2018-03-07T13:29:59.724Z,44.26
2018-03-07T13:31:04.469Z,44.09
2018-03-07T13:32:09.760Z,44.19
2018-03-07T13:33:14.622Z,43.90
2018-03-07T13:34:20.702Z,44.09
2018-03-07T13:35:25.512Z,44.31
2018-03-07T13:36:30.290Z,45.16
2018-03-07T13:37:34.948Z,45.70
2018-03-07T13:38:40.085Z,46.03
2018-03-07T13:39:47.340Z,46.33
2018-03-07T13:40:54.237Z,46.74
2018-03-07T13:41:59.102Z,47.03
2018-03-07T13:43:03.821Z,46.81
2018-03-07T13:44:09.634Z,47.05
2018-03-07T13:45:19.031Z,46.90
2018-03-07T13:46:24.796Z,47.31
2018-03-07T13:47:29.667Z,47.89
2018-03-07T13:48:34.462Z,48.94
2018-03-07T13:49:39.166Z,50.50
2018-03-07T13:50:43.953Z,51.16
2018-03-07T13:51:48.526Z,50.99
2018-03-07T13:52:53.320Z,51.65
2018-03-07T13:53:58.283Z,50.93
2018-03-07T13:55:03.198Z,50.28
2018-03-07T13:56:08.591Z,50.78
2018-03-07T13:57:14.509Z,51.34
2018-03-07T13:58:19.367Z,51.63
2018-03-07T13:59:24.416Z,51.54
2018-03-07T14:00:29.570Z,50.54